createdAt,value
2023-03-31T00:00:34.754Z,95069.03
2023-03-31T00:03:02.464Z,95058.38
2023-03-31T00:05:29.314Z,95060.72
2023-03-31T00:08:01.259Z,95071.47
2023-03-31T00:10:28.893Z,95068.13
2023-03-31T00:12:55.661Z,95071.00
2023-03-31T00:15:22.355Z,95064.44
2023-03-31T00:17:48.990Z,95060.47
2023-03-31T00:20:15.897Z,95059.75
2023-03-31T00:22:46.831Z,95062.75
2023-03-31T00:25:14.034Z,95064.34
2023-03-31T00:27:44.357Z,95063.13
2023-03-31T00:30:12.379Z,95068.03
2023-03-31T00:32:39.230Z,95064.81
2023-03-31T00:35:05.909Z,95065.34
2023-03-31T00:37:33.837Z,95062.25
2023-03-31T00:40:00.672Z,95052.28
2023-03-31T00:42:27.779Z,95050.47
2023-03-31T00:45:12.876Z,95049.41
2023-03-31T00:47:40.923Z,95048.72
2023-03-31T00:50:15.005Z,95053.25
2023-03-31T00:52:41.992Z,95043.50
2023-03-31T00:55:10.958Z,95037.88
2023-03-31T00:57:41.745Z,95035.13
2023-03-31T01:00:16.009Z,95031.97
2023-03-31T01:03:00.399Z,95022.13
2023-03-31T01:05:34.487Z,95037.19
2023-03-31T01:08:02.450Z,95028.09
2023-03-31T01:10:29.826Z,95031.25
2023-03-31T01:12:57.486Z,95028.16
2023-03-31T01:15:24.186Z,95037.56
2023-03-31T01:17:52.544Z,95022.75
2023-03-31T01:20:26.282Z,95035.84
2023-03-31T01:23:03.120Z,95028.09
2023-03-31T01:25:50.387Z,95029.16
2023-03-31T01:28:32.067Z,95030.47
2023-03-31T01:31:37.462Z,95035.13
2023-03-31T01:34:16.126Z,95039.13
2023-03-31T01:36:56.135Z,95030.41
2023-03-31T01:39:41.295Z,95044.31
2023-03-31T01:42:12.523Z,95044.28
2023-03-31T01:44:42.962Z,95045.66
2023-03-31T01:47:14.386Z,95055.19
2023-03-31T01:49:47.865Z,95048.63
2023-03-31T01:52:32.434Z,95065.19
2023-03-31T01:55:04.284Z,95056.50
2023-03-31T01:57:30.875Z,95064.50
2023-03-31T01:59:57.465Z,95066.19
2023-03-31T02:02:28.088Z,95064.91
2023-03-31T02:05:00.823Z,95065.72
2023-03-31T02:07:31.989Z,95065.00
2023-03-31T02:10:00.590Z,95067.31
2023-03-31T02:12:28.808Z,95060.44
2023-03-31T02:14:57.077Z,95068.78
2023-03-31T02:17:30.628Z,95072.09
2023-03-31T02:19:59.365Z,95079.63
2023-03-31T02:22:29.331Z,95080.47
2023-03-31T02:24:56.408Z,95087.03
2023-03-31T02:27:27.489Z,95095.28
2023-03-31T02:29:55.541Z,95078.81
2023-03-31T02:32:32.231Z,95093.16
2023-03-31T02:34:59.917Z,95102.28
2023-03-31T02:37:27.418Z,95101.44
2023-03-31T02:39:55.857Z,95106.41
2023-03-31T02:42:23.062Z,95111.94
2023-03-31T02:44:51.930Z,95109.91
2023-03-31T02:47:21.777Z,95114.66
2023-03-31T02:49:54.610Z,95111.50
2023-03-31T02:52:24.432Z,95109.97
2023-03-31T02:55:15.389Z,95103.44
2023-03-31T02:57:58.372Z,95086.34
2023-03-31T03:00:34.167Z,95089.97
2023-03-31T03:03:14.462Z,95081.97
2023-03-31T03:05:45.940Z,95070.25
2023-03-31T03:08:55.736Z,95060.28
2023-03-31T03:11:42.391Z,95055.09
2023-03-31T03:14:27.968Z,95054.72
2023-03-31T03:17:27.239Z,95057.59
2023-03-31T03:19:54.894Z,95044.75
2023-03-31T03:22:21.746Z,95039.75
2023-03-31T03:24:49.236Z,95036.53
2023-03-31T03:27:16.102Z,95035.53
2023-03-31T03:29:43.220Z,95035.53
2023-03-31T03:32:10.368Z,95044.78
2023-03-31T03:34:37.268Z,95038.16
2023-03-31T03:37:05.764Z,95049.81
2023-03-31T03:39:32.388Z,95038.41
2023-03-31T03:41:59.010Z,95026.59
2023-03-31T03:44:25.708Z,95031.38
2023-03-31T03:46:52.374Z,95027.19
2023-03-31T03:49:19.030Z,95022.47
2023-03-31T03:51:45.761Z,95021.88
2023-03-31T03:54:12.463Z,95027.63
2023-03-31T03:56:39.002Z,95021.19
2023-03-31T03:59:05.653Z,95015.16
2023-03-31T04:01:32.369Z,95025.16
2023-03-31T04:03:59.008Z,95028.25
2023-03-31T04:06:25.998Z,95028.84
2023-03-31T04:08:52.686Z,95031.50
2023-03-31T04:11:19.659Z,95032.47
2023-03-31T04:13:46.994Z,95037.72
2023-03-31T04:16:14.266Z,95037.03
2023-03-31T04:18:42.841Z,95046.50
2023-03-31T04:21:12.300Z,95044.88
2023-03-31T04:23:46.356Z,95044.78
2023-03-31T04:26:13.581Z,95043.78
2023-03-31T04:28:43.044Z,95039.09
2023-03-31T04:31:15.493Z,95037.25
2023-03-31T04:33:46.228Z,95037.41
2023-03-31T04:36:19.104Z,95040.16
2023-03-31T04:38:47.015Z,95041.28
2023-03-31T04:41:14.012Z,95035.13
2023-03-31T04:43:40.641Z,95027.97
2023-03-31T04:46:07.756Z,95028.19
2023-03-31T04:48:34.599Z,95023.78
2023-03-31T04:51:01.412Z,95017.28
2023-03-31T04:53:28.037Z,95020.59
2023-03-31T04:55:54.859Z,95025.19
2023-03-31T04:58:21.513Z,95029.38
2023-03-31T05:00:49.350Z,95015.16
2023-03-31T05:03:16.032Z,95014.97
2023-03-31T05:05:42.865Z,95020.88
2023-03-31T05:08:09.625Z,95020.72
2023-03-31T05:10:36.265Z,95024.38
2023-03-31T05:13:03.043Z,95014.84
2023-03-31T05:15:29.772Z,95016.97
2023-03-31T05:17:58.141Z,95006.09
2023-03-31T05:20:24.765Z,94999.97
2023-03-31T05:22:53.455Z,94987.88
2023-03-31T05:25:20.048Z,94992.63
2023-03-31T05:27:51.013Z,94990.72
2023-03-31T05:30:18.156Z,94983.84
2023-03-31T05:32:44.808Z,94986.63
2023-03-31T05:35:11.460Z,94997.72
2023-03-31T05:37:38.443Z,94996.00
2023-03-31T05:40:05.934Z,94979.59
2023-03-31T05:42:32.608Z,94973.88
2023-03-31T05:44:59.258Z,94984.28
2023-03-31T05:47:27.144Z,94986.56
2023-03-31T05:49:53.869Z,94978.47
2023-03-31T05:52:20.560Z,94977.22
2023-03-31T05:54:47.272Z,94978.88
2023-03-31T05:57:13.990Z,94987.09
2023-03-31T05:59:42.214Z,94998.00
2023-03-31T06:02:12.815Z,94990.31
2023-03-31T06:04:39.905Z,94981.75
2023-03-31T06:07:06.552Z,95001.69
2023-03-31T06:09:33.202Z,94996.91
2023-03-31T06:11:59.929Z,94995.09
2023-03-31T06:14:27.451Z,95002.75
2023-03-31T06:16:56.742Z,94989.97
2023-03-31T06:19:25.601Z,94987.81
2023-03-31T06:21:52.354Z,94984.59
2023-03-31T06:24:18.988Z,94981.69
2023-03-31T06:26:45.595Z,94979.56
2023-03-31T06:29:12.238Z,94982.72
2023-03-31T06:31:39.013Z,94992.97
2023-03-31T06:34:06.661Z,94990.09
2023-03-31T06:36:33.306Z,94984.31
2023-03-31T06:38:59.878Z,94979.50
2023-03-31T06:41:26.896Z,94985.50
2023-03-31T06:43:53.478Z,94984.13
2023-03-31T06:46:20.158Z,94991.59
2023-03-31T06:48:47.075Z,94983.47
2023-03-31T06:51:13.756Z,94999.50
2023-03-31T06:53:40.380Z,94993.47
2023-03-31T06:56:07.658Z,94991.31
2023-03-31T06:58:34.606Z,94984.88
2023-03-31T07:01:05.612Z,94982.34
2023-03-31T07:03:32.988Z,94975.06
2023-03-31T07:05:59.713Z,94975.03
2023-03-31T07:08:26.381Z,94966.03
2023-03-31T07:10:57.904Z,94957.63
2023-03-31T07:13:25.487Z,94931.72
2023-03-31T07:15:52.379Z,94932.59
2023-03-31T07:18:19.984Z,94924.66
2023-03-31T07:20:50.627Z,94920.75
2023-03-31T07:23:17.589Z,94909.72
2023-03-31T07:25:45.509Z,94906.84
2023-03-31T07:28:12.214Z,94907.59
2023-03-31T07:30:39.906Z,94910.75
2023-03-31T07:33:07.472Z,94911.81
2023-03-31T07:35:34.412Z,94915.41
2023-03-31T07:38:01.127Z,94920.75
2023-03-31T07:40:28.665Z,94912.66
2023-03-31T07:42:55.600Z,94914.19
2023-03-31T07:45:23.090Z,94904.63
2023-03-31T07:47:50.333Z,94903.56
2023-03-31T07:50:18.298Z,94905.47
2023-03-31T07:52:47.570Z,94902.97
2023-03-31T07:55:14.752Z,94894.56
2023-03-31T07:57:42.320Z,94900.09
2023-03-31T08:00:12.281Z,94907.44
2023-03-31T08:02:40.095Z,94901.47
2023-03-31T08:05:07.673Z,94890.47
2023-03-31T08:07:34.939Z,94883.81
2023-03-31T08:10:03.269Z,94892.63
2023-03-31T08:12:29.938Z,94886.34
2023-03-31T08:14:57.558Z,94877.38
2023-03-31T08:17:24.225Z,94865.16
2023-03-31T08:19:52.123Z,94871.78
2023-03-31T08:22:18.812Z,94873.03
2023-03-31T08:24:45.427Z,94869.16
2023-03-31T08:27:12.571Z,94864.09
2023-03-31T08:29:39.413Z,94870.66
2023-03-31T08:32:07.288Z,94865.69
2023-03-31T08:34:34.580Z,94864.84
2023-03-31T08:37:01.208Z,94874.81
2023-03-31T08:39:27.807Z,94860.03
2023-03-31T08:42:00.229Z,94857.56
2023-03-31T08:44:33.223Z,94865.53
2023-03-31T08:47:02.575Z,94842.06
2023-03-31T08:49:32.618Z,94869.78
2023-03-31T08:52:01.864Z,94863.25
2023-03-31T08:54:38.481Z,94863.75
2023-03-31T08:57:11.367Z,94850.50
2023-03-31T08:59:39.152Z,94849.41
2023-03-31T09:02:24.665Z,94852.59
2023-03-31T09:05:07.075Z,94838.72
2023-03-31T09:07:34.899Z,94843.50
2023-03-31T09:10:01.470Z,94849.50
2023-03-31T09:12:28.046Z,94844.03
2023-03-31T09:15:05.214Z,94849.34
2023-03-31T09:17:40.485Z,94835.41
2023-03-31T09:20:13.501Z,94831.69
2023-03-31T09:22:44.102Z,94836.97
2023-03-31T09:25:18.917Z,94831.38
2023-03-31T09:27:47.928Z,94811.88
2023-03-31T09:30:20.622Z,94827.97
2023-03-31T09:32:49.310Z,94831.09
2023-03-31T09:35:18.114Z,94821.56
2023-03-31T09:37:44.686Z,94826.34
2023-03-31T09:40:16.163Z,94818.53
2023-03-31T09:42:42.986Z,94805.31
2023-03-31T09:45:16.957Z,94815.25
2023-03-31T09:47:46.316Z,94797.56
2023-03-31T09:50:13.252Z,94809.06
2023-03-31T09:52:41.504Z,94803.09
2023-03-31T09:55:31.956Z,94797.69
2023-03-31T09:58:06.554Z,94789.69
2023-03-31T10:00:34.076Z,94791.16
2023-03-31T10:03:07.845Z,94785.34
2023-03-31T10:05:36.662Z,94776.25
2023-03-31T10:08:30.278Z,94785.03
2023-03-31T10:10:56.989Z,94772.91
2023-03-31T10:13:29.512Z,94768.13
2023-03-31T10:16:03.352Z,94770.75
2023-03-31T10:18:34.642Z,94770.91
2023-03-31T10:21:02.249Z,94769.44
2023-03-31T10:23:30.326Z,94770.16
2023-03-31T10:25:57.202Z,94767.19
2023-03-31T10:28:24.149Z,94761.38
2023-03-31T10:30:56.177Z,94761.44
2023-03-31T10:33:25.771Z,94756.47
2023-03-31T10:35:57.561Z,94745.44
2023-03-31T10:38:32.063Z,94755.56
2023-03-31T10:40:59.951Z,94754.91
2023-03-31T10:43:33.398Z,94744.66
2023-03-31T10:46:00.563Z,94741.81
2023-03-31T10:48:29.113Z,94745.25
2023-03-31T10:50:59.720Z,94744.53
2023-03-31T10:53:28.404Z,94742.34
2023-03-31T10:56:13.764Z,94736.16
2023-03-31T10:58:40.671Z,94741.53
2023-03-31T11:01:23.197Z,94740.50
2023-03-31T11:03:49.935Z,94723.63
2023-03-31T11:06:36.921Z,94723.81
2023-03-31T11:09:03.904Z,94723.59
2023-03-31T11:11:36.663Z,94702.19
2023-03-31T11:14:22.910Z,94717.53
2023-03-31T11:16:49.551Z,94720.00
2023-03-31T11:19:25.019Z,94708.19
2023-03-31T11:21:51.572Z,94716.13
2023-03-31T11:24:18.153Z,94700.97
2023-03-31T11:26:50.638Z,94695.31
2023-03-31T11:29:17.267Z,94694.34
2023-03-31T11:31:43.976Z,94690.41
2023-03-31T11:34:23.017Z,94675.00
2023-03-31T11:37:08.191Z,94683.53
2023-03-31T11:39:40.895Z,94676.63
2023-03-31T11:42:20.305Z,94681.28
2023-03-31T11:44:53.101Z,94670.31
2023-03-31T11:47:21.579Z,94667.56
2023-03-31T11:49:53.662Z,94665.41
2023-03-31T11:52:49.681Z,94664.06
2023-03-31T11:55:21.835Z,94658.88
2023-03-31T11:57:59.193Z,94650.41
2023-03-31T12:00:48.827Z,94653.53
2023-03-31T12:03:24.350Z,94647.75
2023-03-31T12:05:58.982Z,94642.72
2023-03-31T12:08:44.519Z,94638.63
2023-03-31T12:11:14.996Z,94630.97
2023-03-31T12:14:00.463Z,94633.16
2023-03-31T12:16:37.411Z,94621.34
2023-03-31T12:19:11.463Z,94616.97
2023-03-31T12:21:39.768Z,94608.19
2023-03-31T12:24:08.394Z,94613.75
2023-03-31T12:26:45.787Z,94621.03
2023-03-31T12:29:24.501Z,94616.31
2023-03-31T12:31:53.401Z,94603.47
2023-03-31T12:34:21.524Z,94611.53
2023-03-31T12:36:56.594Z,94609.31
2023-03-31T12:39:32.264Z,94606.38
2023-03-31T12:42:17.661Z,94597.91
2023-03-31T12:45:02.900Z,94601.06
2023-03-31T12:47:36.144Z,94597.16
2023-03-31T12:50:02.842Z,94594.25
2023-03-31T12:52:32.627Z,94569.03
2023-03-31T12:55:17.708Z,94565.75
2023-03-31T12:57:44.421Z,94566.66
2023-03-31T13:00:27.337Z,94564.06
2023-03-31T13:03:14.882Z,94553.00
2023-03-31T13:05:44.661Z,94548.81
2023-03-31T13:08:11.282Z,94540.94
2023-03-31T13:10:58.567Z,94521.34
2023-03-31T13:13:25.925Z,94528.59
2023-03-31T13:15:56.918Z,94511.25
2023-03-31T13:18:23.979Z,94499.94
2023-03-31T13:21:00.345Z,94501.41
2023-03-31T13:23:30.240Z,94488.75
2023-03-31T13:25:57.165Z,94475.03
2023-03-31T13:28:24.146Z,94471.44
2023-03-31T13:30:55.181Z,94470.88
2023-03-31T13:33:32.546Z,94465.59
2023-03-31T13:36:14.905Z,94468.63
2023-03-31T13:39:00.912Z,94460.53
2023-03-31T13:41:32.903Z,94452.03
2023-03-31T13:43:59.469Z,94446.84
2023-03-31T13:46:26.201Z,94444.44
2023-03-31T13:48:58.999Z,94427.97
2023-03-31T13:51:25.769Z,94433.38
2023-03-31T13:53:54.609Z,94428.53
2023-03-31T13:56:36.571Z,94430.38
2023-03-31T13:59:12.384Z,94428.00
2023-03-31T14:01:54.195Z,94419.97
2023-03-31T14:04:20.972Z,94412.84
2023-03-31T14:06:49.960Z,94411.66
2023-03-31T14:09:29.009Z,94416.75
2023-03-31T14:11:56.667Z,94408.13
2023-03-31T14:14:25.016Z,94406.81
2023-03-31T14:16:54.208Z,94398.19
2023-03-31T14:19:33.094Z,94393.75
2023-03-31T14:22:19.172Z,94407.47
2023-03-31T14:24:59.772Z,94403.81
2023-03-31T14:27:36.707Z,94404.00
2023-03-31T14:30:04.245Z,94401.19
2023-03-31T14:32:53.928Z,94397.03
2023-03-31T14:35:26.716Z,94398.88
2023-03-31T14:37:54.618Z,94377.53
2023-03-31T14:40:21.886Z,94384.13
2023-03-31T14:42:51.165Z,94389.81
2023-03-31T14:45:25.398Z,94378.94
2023-03-31T14:48:11.959Z,94373.38
2023-03-31T14:50:38.678Z,94373.59
2023-03-31T14:53:13.876Z,94364.06
2023-03-31T14:55:54.833Z,94364.94
2023-03-31T14:58:27.902Z,94362.72
2023-03-31T15:00:54.926Z,94366.81
2023-03-31T15:03:21.639Z,94358.38
2023-03-31T15:05:50.306Z,94364.69
2023-03-31T15:08:20.215Z,94368.28
2023-03-31T15:10:54.003Z,94364.91
2023-03-31T15:13:23.300Z,94367.53
2023-03-31T15:15:50.099Z,94357.81
2023-03-31T15:18:17.367Z,94363.56
2023-03-31T15:20:44.822Z,94353.22
2023-03-31T15:23:25.216Z,94353.75
2023-03-31T15:25:54.653Z,94356.72
2023-03-31T15:28:22.938Z,94356.84
2023-03-31T15:30:54.319Z,94355.41
2023-03-31T15:33:31.976Z,94354.31
2023-03-31T15:35:58.749Z,94365.75
2023-03-31T15:38:27.522Z,94355.22
2023-03-31T15:40:56.092Z,94358.22
2023-03-31T15:43:30.660Z,94355.44
2023-03-31T15:45:58.242Z,94362.88
2023-03-31T15:48:33.963Z,94355.25
2023-03-31T15:51:04.151Z,94354.53
2023-03-31T15:53:32.510Z,94356.97
2023-03-31T15:56:00.090Z,94361.69
2023-03-31T15:58:46.197Z,94361.16
2023-03-31T16:01:15.988Z,94353.69
2023-03-31T16:03:45.748Z,94355.06
2023-03-31T16:06:19.057Z,94350.06
2023-03-31T16:08:48.516Z,94357.28
2023-03-31T16:11:20.997Z,94358.53
2023-03-31T16:13:53.470Z,94354.59
2023-03-31T16:16:22.951Z,94353.72
2023-03-31T16:18:51.098Z,94355.19
2023-03-31T16:21:24.668Z,94352.38
2023-03-31T16:23:53.958Z,94342.19
2023-03-31T16:26:24.580Z,94349.53
2023-03-31T16:28:52.783Z,94352.31
2023-03-31T16:31:28.602Z,94342.34
2023-03-31T16:33:57.151Z,94349.06
2023-03-31T16:36:23.808Z,94344.03
2023-03-31T16:38:57.939Z,94347.06
2023-03-31T16:41:27.153Z,94354.16
2023-03-31T16:43:54.238Z,94350.28
2023-03-31T16:46:21.722Z,94353.50
2023-03-31T16:48:49.145Z,94347.88
2023-03-31T16:51:17.172Z,94340.97
2023-03-31T16:53:44.215Z,94347.56
2023-03-31T16:56:13.016Z,94342.09
2023-03-31T16:58:40.236Z,94350.28
2023-03-31T17:01:07.749Z,94346.91
2023-03-31T17:03:35.267Z,94332.41
2023-03-31T17:06:05.729Z,94334.72
2023-03-31T17:08:32.579Z,94334.06
2023-03-31T17:11:07.581Z,94340.66
2023-03-31T17:13:35.805Z,94344.59
2023-03-31T17:18:49.534Z,94341.84
2023-03-31T17:21:18.407Z,94351.25
2023-03-31T17:23:46.582Z,94352.88
2023-03-31T17:26:13.727Z,94354.97
2023-03-31T17:28:41.103Z,94354.03
2023-03-31T17:31:11.381Z,94366.34
2023-03-31T17:33:38.343Z,94365.81
2023-03-31T17:36:05.389Z,94354.44
2023-03-31T17:38:32.643Z,94349.06
2023-03-31T17:41:10.082Z,94345.72
2023-03-31T17:43:38.022Z,94344.78
2023-03-31T17:46:11.896Z,94343.22
2023-03-31T17:48:39.699Z,94346.16
2023-03-31T17:51:08.552Z,94362.97
2023-03-31T17:53:35.634Z,94357.22
2023-03-31T17:56:03.888Z,94352.38
2023-03-31T17:58:31.158Z,94343.78
2023-03-31T18:00:59.545Z,94344.38
2023-03-31T18:03:29.363Z,94340.19
2023-03-31T18:05:56.016Z,94342.41
2023-03-31T18:08:23.162Z,94344.13
2023-03-31T18:10:50.558Z,94348.44
2023-03-31T18:13:17.504Z,94352.63
2023-03-31T18:15:51.344Z,94348.88
2023-03-31T18:18:18.724Z,94348.44
2023-03-31T18:20:45.371Z,94344.25
2023-03-31T18:23:12.146Z,94344.94
2023-03-31T18:25:38.998Z,94342.63
2023-03-31T18:28:05.780Z,94349.88
2023-03-31T18:30:32.559Z,94348.53
2023-03-31T18:32:59.664Z,94348.56
2023-03-31T18:35:27.441Z,94344.63
2023-03-31T18:37:54.147Z,94353.91
2023-03-31T18:40:20.938Z,94339.84
2023-03-31T18:42:48.380Z,94345.06
2023-03-31T18:45:15.099Z,94341.16
2023-03-31T18:47:42.191Z,94334.66
2023-03-31T18:50:09.395Z,94329.13
2023-03-31T18:52:36.229Z,94327.09
2023-03-31T18:55:03.569Z,94334.66
2023-03-31T18:57:30.780Z,94337.09
2023-03-31T18:59:57.560Z,94333.66
2023-03-31T19:02:24.292Z,94328.91
2023-03-31T19:04:50.983Z,94331.19
2023-03-31T19:07:17.710Z,94333.72
2023-03-31T19:09:44.495Z,94329.56
2023-03-31T19:12:11.894Z,94338.13
2023-03-31T19:14:38.800Z,94334.09
2023-03-31T19:17:05.422Z,94334.94
2023-03-31T19:19:32.581Z,94339.47
2023-03-31T19:21:59.202Z,94346.00
2023-03-31T19:24:25.897Z,94342.09
2023-03-31T19:26:52.661Z,94351.19
2023-03-31T19:29:19.344Z,94342.09
2023-03-31T19:31:47.647Z,94336.41
2023-03-31T19:34:16.558Z,94329.34
2023-03-31T19:36:44.197Z,94337.03
2023-03-31T19:39:11.772Z,94334.00
2023-03-31T19:41:38.557Z,94343.38
2023-03-31T19:44:05.334Z,94333.56
2023-03-31T19:46:32.144Z,94337.13
2023-03-31T19:48:59.196Z,94339.31
2023-03-31T19:51:26.009Z,94340.91
2023-03-31T19:53:53.679Z,94344.09
2023-03-31T19:56:21.477Z,94339.28
2023-03-31T19:58:50.179Z,94340.88
2023-03-31T20:01:21.762Z,94338.22
2023-03-31T20:03:53.532Z,94346.19
2023-03-31T20:06:21.556Z,94342.22
2023-03-31T20:08:52.194Z,94336.19
2023-03-31T20:11:18.956Z,94342.88
2023-03-31T20:13:45.769Z,94346.97
2023-03-31T20:16:13.868Z,94347.53
2023-03-31T20:18:40.729Z,94344.53
2023-03-31T20:21:09.637Z,94353.31
2023-03-31T20:23:38.037Z,94337.38
2023-03-31T20:26:05.352Z,94341.13
2023-03-31T20:28:34.061Z,94340.97
2023-03-31T20:31:05.957Z,94329.72
2023-03-31T20:33:33.865Z,94337.38
2023-03-31T20:36:05.224Z,94333.78
2023-03-31T20:38:32.970Z,94342.34
2023-03-31T20:41:00.092Z,94330.06
2023-03-31T20:43:27.261Z,94331.66
2023-03-31T20:46:04.420Z,94336.66
2023-03-31T20:48:31.194Z,94334.97
2023-03-31T20:50:58.209Z,94332.28
2023-03-31T20:53:24.886Z,94338.06
2023-03-31T20:55:51.699Z,94342.59
2023-03-31T20:58:18.448Z,94333.41
2023-03-31T21:00:45.247Z,94345.41
2023-03-31T21:03:12.220Z,94335.28
2023-03-31T21:05:43.620Z,94332.94
2023-03-31T21:08:10.855Z,94326.84
2023-03-31T21:10:42.034Z,94339.16
2023-03-31T21:13:10.035Z,94326.88
2023-03-31T21:15:37.177Z,94319.38
2023-03-31T21:18:04.760Z,94325.47
2023-03-31T21:20:32.752Z,94319.09
2023-03-31T21:23:01.039Z,94320.94
2023-03-31T21:25:27.808Z,94325.78
2023-03-31T21:27:55.465Z,94324.06
2023-03-31T21:30:22.372Z,94312.38
2023-03-31T21:32:49.049Z,94319.66
2023-03-31T21:35:15.923Z,94322.78
2023-03-31T21:37:44.890Z,94318.16
2023-03-31T21:40:12.011Z,94322.69
2023-03-31T21:42:38.728Z,94312.38
2023-03-31T21:45:05.555Z,94313.22
2023-03-31T21:47:32.848Z,94305.63
2023-03-31T21:50:00.448Z,94300.94
2023-03-31T21:52:27.829Z,94304.44
2023-03-31T21:54:54.469Z,94309.06
2023-03-31T21:57:21.361Z,94314.25
2023-03-31T21:59:48.051Z,94310.41
2023-03-31T22:02:14.679Z,94300.59
2023-03-31T22:04:41.489Z,94310.22
2023-03-31T22:07:08.088Z,94309.94
2023-03-31T22:09:34.723Z,94297.72
2023-03-31T22:12:02.362Z,94292.06
2023-03-31T22:14:28.990Z,94297.50
2023-03-31T22:16:55.554Z,94290.53
2023-03-31T22:19:22.477Z,94290.53
2023-03-31T22:21:50.086Z,94288.19
2023-03-31T22:24:16.976Z,94287.72
2023-03-31T22:26:43.645Z,94277.66
2023-03-31T22:29:14.976Z,94281.63
2023-03-31T22:31:41.984Z,94285.84
2023-03-31T22:34:08.567Z,94291.97
2023-03-31T22:36:35.544Z,94295.13
2023-03-31T22:39:02.346Z,94288.88
2023-03-31T22:41:29.140Z,94288.94
2023-03-31T22:43:55.964Z,94291.59
2023-03-31T22:46:22.861Z,94292.22
2023-03-31T22:48:50.364Z,94275.59
2023-03-31T22:51:17.405Z,94276.06
2023-03-31T22:53:44.036Z,94277.13
2023-03-31T22:56:12.022Z,94283.09
2023-03-31T22:58:38.800Z,94268.25
2023-03-31T23:01:07.251Z,94263.91
2023-03-31T23:03:34.173Z,94278.06
2023-03-31T23:06:05.195Z,94284.38
2023-03-31T23:08:33.385Z,94284.31
2023-03-31T23:11:00.726Z,94278.31
2023-03-31T23:13:28.001Z,94270.41
2023-03-31T23:15:54.793Z,94260.16
2023-03-31T23:18:22.484Z,94261.88
2023-03-31T23:20:49.327Z,94261.69
2023-03-31T23:23:16.025Z,94260.47
2023-03-31T23:25:42.691Z,94264.41
2023-03-31T23:28:09.259Z,94248.91
2023-03-31T23:30:36.171Z,94261.06
2023-03-31T23:33:02.759Z,94268.41
2023-03-31T23:35:29.819Z,94254.38
2023-03-31T23:37:56.842Z,94248.88
2023-03-31T23:40:24.538Z,94252.16
2023-03-31T23:42:51.198Z,94249.34
2023-03-31T23:45:18.626Z,94238.00
2023-03-31T23:47:45.517Z,94231.47
2023-03-31T23:50:12.170Z,94234.00
2023-03-31T23:52:38.863Z,94234.28
2023-03-31T23:55:05.797Z,94236.59
2023-03-31T23:57:32.555Z,94232.22
2023-03-31T23:59:59.454Z,94232.94
